sensor_id;sensor_type;location;lat;lon;timestamp;temperature;humidity
8220;DHT22;4151;51.110;7.020;2022-08-19T00:01:24;18.00;99.90
8220;DHT22;4151;51.110;7.020;2022-08-19T00:03:50;18.00;99.90
8220;DHT22;4151;51.110;7.020;2022-08-19T00:06:16;17.90;99.90
8220;DHT22;4151;51.110;7.020;2022-08-19T00:08:42;17.90;99.90
8220;DHT22;4151;51.110;7.020;2022-08-19T00:11:09;18.00;99.90
8220;DHT22;4151;51.110;7.020;2022-08-19T00:13:34;18.00;99.90
8220;DHT22;4151;51.110;7.020;2022-08-19T00:16:00;18.00;99.90
8220;DHT22;4151;51.110;7.020;2022-08-19T00:18:26;18.00;99.90
8220;DHT22;4151;51.110;7.020;2022-08-19T00:20:52;17.90;99.90
8220;DHT22;4151;51.110;7.020;2022-08-19T00:23:18;17.90;99.90
8220;DHT22;4151;51.110;7.020;2022-08-19T00:25:44;17.80;99.90
8220;DHT22;4151;51.110;7.020;2022-08-19T00:28:10;17.80;99.90
8220;DHT22;4151;51.110;7.020;2022-08-19T00:30:36;17.80;99.90
8220;DHT22;4151;51.110;7.020;2022-08-19T00:33:02;17.70;99.90
8220;DHT22;4151;51.110;7.020;2022-08-19T00:35:28;17.80;99.90
8220;DHT22;4151;51.110;7.020;2022-08-19T00:37:53;17.70;99.90
8220;DHT22;4151;51.110;7.020;2022-08-19T00:40:19;17.70;99.90
8220;DHT22;4151;51.110;7.020;2022-08-19T00:42:45;17.70;99.90
8220;DHT22;4151;51.110;7.020;2022-08-19T00:45:15;17.70;99.90
8220;DHT22;4151;51.110;7.020;2022-08-19T00:47:42;17.70;99.90
8220;DHT22;4151;51.110;7.020;2022-08-19T00:50:09;17.70;99.90
8220;DHT22;4151;51.110;7.020;2022-08-19T00:52:39;17.60;99.90
8220;DHT22;4151;51.110;7.020;2022-08-19T00:55:08;17.70;99.90
8220;DHT22;4151;51.110;7.020;2022-08-19T00:57:40;17.60;99.90
8220;DHT22;4151;51.110;7.020;2022-08-19T01:00:10;17.60;99.90
8220;DHT22;4151;51.110;7.020;2022-08-19T01:02:38;17.60;99.90
8220;DHT22;4151;51.110;7.020;2022-08-19T01:05:08;17.60;99.90
8220;DHT22;4151;51.110;7.020;2022-08-19T01:07:35;17.50;99.90
8220;DHT22;4151;51.110;7.020;2022-08-19T01:10:03;17.50;99.90
8220;DHT22;4151;51.110;7.020;2022-08-19T01:12:29;17.40;99.90
8220;DHT22;4151;51.110;7.020;2022-08-19T01:14:55;17.40;99.90
8220;DHT22;4151;51.110;7.020;2022-08-19T01:17:21;17.40;99.90
8220;DHT22;4151;51.110;7.020;2022-08-19T01:19:49;17.40;99.90
8220;DHT22;4151;51.110;7.020;2022-08-19T01:24:50;17.40;99.90
8220;DHT22;4151;51.110;7.020;2022-08-19T01:27:16;17.40;99.90
8220;DHT22;4151;51.110;7.020;2022-08-19T01:29:42;17.50;99.90
8220;DHT22;4151;51.110;7.020;2022-08-19T01:32:13;17.40;99.90
8220;DHT22;4151;51.110;7.020;2022-08-19T01:34:40;17.40;99.90
8220;DHT22;4151;51.110;7.020;2022-08-19T01:37:08;17.40;99.90
8220;DHT22;4151;51.110;7.020;2022-08-19T01:39:37;17.40;99.90
8220;DHT22;4151;51.110;7.020;2022-08-19T01:42:04;17.40;99.90
8220;DHT22;4151;51.110;7.020;2022-08-19T01:44:30;17.30;99.90
8220;DHT22;4151;51.110;7.020;2022-08-19T01:46:56;17.20;99.90
8220;DHT22;4151;51.110;7.020;2022-08-19T01:49:23;17.20;99.90
8220;DHT22;4151;51.110;7.020;2022-08-19T01:51:51;17.20;99.90
8220;DHT22;4151;51.110;7.020;2022-08-19T01:54:18;17.20;99.90
8220;DHT22;4151;51.110;7.020;2022-08-19T01:56:44;17.20;99.90
8220;DHT22;4151;51.110;7.020;2022-08-19T01:59:15;17.20;99.90
8220;DHT22;4151;51.110;7.020;2022-08-19T02:01:41;17.20;99.90
8220;DHT22;4151;51.110;7.020;2022-08-19T02:04:07;17.20;99.90
8220;DHT22;4151;51.110;7.020;2022-08-19T02:06:33;17.10;99.90
8220;DHT22;4151;51.110;7.020;2022-08-19T02:08:59;17.10;99.90
8220;DHT22;4151;51.110;7.020;2022-08-19T02:11:29;17.00;99.90
8220;DHT22;4151;51.110;7.020;2022-08-19T02:13:57;17.00;99.90
8220;DHT22;4151;51.110;7.020;2022-08-19T02:16:23;17.00;99.90
8220;DHT22;4151;51.110;7.020;2022-08-19T02:18:49;17.10;99.90
8220;DHT22;4151;51.110;7.020;2022-08-19T02:21:20;17.00;99.90
8220;DHT22;4151;51.110;7.020;2022-08-19T02:23:46;17.00;99.90
8220;DHT22;4151;51.110;7.020;2022-08-19T02:26:12;17.00;99.90
8220;DHT22;4151;51.110;7.020;2022-08-19T02:28:39;17.00;99.90
8220;DHT22;4151;51.110;7.020;2022-08-19T02:31:09;17.00;99.90
8220;DHT22;4151;51.110;7.020;2022-08-19T02:33:35;16.90;99.90
8220;DHT22;4151;51.110;7.020;2022-08-19T02:36:04;16.90;99.90
8220;DHT22;4151;51.110;7.020;2022-08-19T02:38:29;16.90;99.90
8220;DHT22;4151;51.110;7.020;2022-08-19T02:41:02;16.90;99.90
8220;DHT22;4151;51.110;7.020;2022-08-19T02:43:30;16.90;99.90
8220;DHT22;4151;51.110;7.020;2022-08-19T02:45:55;16.80;99.90
8220;DHT22;4151;51.110;7.020;2022-08-19T02:48:23;16.80;99.90
8220;DHT22;4151;51.110;7.020;2022-08-19T02:50:51;16.80;99.90
8220;DHT22;4151;51.110;7.020;2022-08-19T02:53:26;16.80;99.90
8220;DHT22;4151;51.110;7.020;2022-08-19T02:55:53;16.80;99.90
8220;DHT22;4151;51.110;7.020;2022-08-19T02:58:20;16.80;99.90
8220;DHT22;4151;51.110;7.020;2022-08-19T03:00:49;16.70;99.90
8220;DHT22;4151;51.110;7.020;2022-08-19T03:03:16;16.70;99.90
8220;DHT22;4151;51.110;7.020;2022-08-19T03:05:42;16.70;99.90
8220;DHT22;4151;51.110;7.020;2022-08-19T03:08:08;16.60;99.90
8220;DHT22;4151;51.110;7.020;2022-08-19T03:10:45;16.50;99.90
8220;DHT22;4151;51.110;7.020;2022-08-19T03:13:16;16.50;99.90
8220;DHT22;4151;51.110;7.020;2022-08-19T03:15:45;16.50;99.90
8220;DHT22;4151;51.110;7.020;2022-08-19T03:18:11;16.50;99.90
8220;DHT22;4151;51.110;7.020;2022-08-19T03:20:44;16.50;99.90
8220;DHT22;4151;51.110;7.020;2022-08-19T03:23:11;16.50;99.90
8220;DHT22;4151;51.110;7.020;2022-08-19T03:25:43;16.50;99.90
8220;DHT22;4151;51.110;7.020;2022-08-19T03:28:14;16.50;99.90
8220;DHT22;4151;51.110;7.020;2022-08-19T03:30:41;16.50;99.90
8220;DHT22;4151;51.110;7.020;2022-08-19T03:33:08;16.50;99.90
8220;DHT22;4151;51.110;7.020;2022-08-19T03:35:34;16.50;99.90
8220;DHT22;4151;51.110;7.020;2022-08-19T03:38:03;16.50;99.90
8220;DHT22;4151;51.110;7.020;2022-08-19T03:40:28;16.40;99.90
8220;DHT22;4151;51.110;7.020;2022-08-19T03:42:56;16.40;99.90
8220;DHT22;4151;51.110;7.020;2022-08-19T03:45:22;16.40;99.90
8220;DHT22;4151;51.110;7.020;2022-08-19T03:47:48;16.40;99.90
8220;DHT22;4151;51.110;7.020;2022-08-19T03:50:14;16.40;99.90
8220;DHT22;4151;51.110;7.020;2022-08-19T03:52:39;16.40;99.90
8220;DHT22;4151;51.110;7.020;2022-08-19T03:55:06;16.40;99.90
8220;DHT22;4151;51.110;7.020;2022-08-19T03:57:33;16.50;99.90
8220;DHT22;4151;51.110;7.020;2022-08-19T03:59:59;16.50;99.90
8220;DHT22;4151;51.110;7.020;2022-08-19T04:02:25;16.40;99.90
8220;DHT22;4151;51.110;7.020;2022-08-19T04:04:53;16.40;99.90
8220;DHT22;4151;51.110;7.020;2022-08-19T04:07:19;16.50;99.90
8220;DHT22;4151;51.110;7.020;2022-08-19T04:09:47;16.50;99.90
8220;DHT22;4151;51.110;7.020;2022-08-19T04:12:13;16.50;99.90
8220;DHT22;4151;51.110;7.020;2022-08-19T04:14:39;16.50;99.90
8220;DHT22;4151;51.110;7.020;2022-08-19T04:17:05;16.50;99.90
8220;DHT22;4151;51.110;7.020;2022-08-19T04:19:31;16.50;99.90
8220;DHT22;4151;51.110;7.020;2022-08-19T04:21:57;16.50;99.90
8220;DHT22;4151;51.110;7.020;2022-08-19T04:24:24;16.50;99.90
8220;DHT22;4151;51.110;7.020;2022-08-19T04:26:50;16.50;99.90
8220;DHT22;4151;51.110;7.020;2022-08-19T04:29:21;16.40;99.90
8220;DHT22;4151;51.110;7.020;2022-08-19T04:31:48;16.50;99.90
8220;DHT22;4151;51.110;7.020;2022-08-19T04:34:16;16.40;99.90
8220;DHT22;4151;51.110;7.020;2022-08-19T04:36:44;16.40;99.90
8220;DHT22;4151;51.110;7.020;2022-08-19T04:39:14;16.30;99.90
8220;DHT22;4151;51.110;7.020;2022-08-19T04:41:41;16.40;99.90
8220;DHT22;4151;51.110;7.020;2022-08-19T04:44:25;16.40;99.90
8220;DHT22;4151;51.110;7.020;2022-08-19T04:46:51;16.40;99.90
8220;DHT22;4151;51.110;7.020;2022-08-19T04:49:18;16.50;99.90
8220;DHT22;4151;51.110;7.020;2022-08-19T04:51:46;16.50;99.90
8220;DHT22;4151;51.110;7.020;2022-08-19T04:54:13;16.50;99.90
8220;DHT22;4151;51.110;7.020;2022-08-19T04:56:40;16.60;99.90
8220;DHT22;4151;51.110;7.020;2022-08-19T04:59:06;16.60;99.90
8220;DHT22;4151;51.110;7.020;2022-08-19T05:01:33;16.60;99.90
8220;DHT22;4151;51.110;7.020;2022-08-19T05:04:02;16.60;99.90
8220;DHT22;4151;51.110;7.020;2022-08-19T05:06:30;16.70;99.90
8220;DHT22;4151;51.110;7.020;2022-08-19T05:08:58;16.80;99.90
8220;DHT22;4151;51.110;7.020;2022-08-19T05:11:33;16.70;99.90
8220;DHT22;4151;51.110;7.020;2022-08-19T05:13:59;16.70;99.90
8220;DHT22;4151;51.110;7.020;2022-08-19T05:16:27;16.70;99.90
8220;DHT22;4151;51.110;7.020;2022-08-19T05:18:53;16.70;99.90
8220;DHT22;4151;51.110;7.020;2022-08-19T05:21:40;16.80;99.90
8220;DHT22;4151;51.110;7.020;2022-08-19T05:24:24;16.90;99.90
8220;DHT22;4151;51.110;7.020;2022-08-19T05:26:51;16.90;99.90
8220;DHT22;4151;51.110;7.020;2022-08-19T05:29:19;16.90;99.90
8220;DHT22;4151;51.110;7.020;2022-08-19T05:31:47;16.90;99.90
8220;DHT22;4151;51.110;7.020;2022-08-19T05:34:14;16.80;99.90
8220;DHT22;4151;51.110;7.020;2022-08-19T05:36:42;16.80;99.90
8220;DHT22;4151;51.110;7.020;2022-08-19T05:39:20;16.90;99.90
8220;DHT22;4151;51.110;7.020;2022-08-19T05:41:49;16.90;99.90
8220;DHT22;4151;51.110;7.020;2022-08-19T05:44:16;17.00;99.90
8220;DHT22;4151;51.110;7.020;2022-08-19T05:46:44;17.10;99.90
8220;DHT22;4151;51.110;7.020;2022-08-19T05:49:13;17.10;99.90
8220;DHT22;4151;51.110;7.020;2022-08-19T05:51:38;17.30;99.90
8220;DHT22;4151;51.110;7.020;2022-08-19T05:54:05;17.40;99.90
8220;DHT22;4151;51.110;7.020;2022-08-19T05:56:33;17.50;99.90
8220;DHT22;4151;51.110;7.020;2022-08-19T05:59:02;17.50;99.90
8220;DHT22;4151;51.110;7.020;2022-08-19T06:01:27;17.60;99.90
8220;DHT22;4151;51.110;7.020;2022-08-19T06:03:53;17.80;99.90
8220;DHT22;4151;51.110;7.020;2022-08-19T06:06:19;17.90;99.90
8220;DHT22;4151;51.110;7.020;2022-08-19T06:08:45;18.00;99.90
8220;DHT22;4151;51.110;7.020;2022-08-19T06:11:32;18.00;99.90
8220;DHT22;4151;51.110;7.020;2022-08-19T06:14:05;18.10;99.90
8220;DHT22;4151;51.110;7.020;2022-08-19T06:16:33;18.10;99.90
8220;DHT22;4151;51.110;7.020;2022-08-19T06:19:02;18.10;99.90
8220;DHT22;4151;51.110;7.020;2022-08-19T06:21:29;18.20;99.90
8220;DHT22;4151;51.110;7.020;2022-08-19T06:23:56;18.20;99.90
8220;DHT22;4151;51.110;7.020;2022-08-19T06:26:22;18.30;99.90
8220;DHT22;4151;51.110;7.020;2022-08-19T06:28:49;18.40;99.90
8220;DHT22;4151;51.110;7.020;2022-08-19T06:31:18;18.60;99.90
8220;DHT22;4151;51.110;7.020;2022-08-19T06:33:45;18.70;99.90
8220;DHT22;4151;51.110;7.020;2022-08-19T06:36:27;18.80;99.90
8220;DHT22;4151;51.110;7.020;2022-08-19T06:38:57;18.90;99.90
8220;DHT22;4151;51.110;7.020;2022-08-19T06:41:25;18.90;99.90
8220;DHT22;4151;51.110;7.020;2022-08-19T06:43:51;18.90;99.90
8220;DHT22;4151;51.110;7.020;2022-08-19T06:46:17;18.90;99.90
8220;DHT22;4151;51.110;7.020;2022-08-19T06:48:45;19.00;99.90
8220;DHT22;4151;51.110;7.020;2022-08-19T06:51:13;19.10;99.90
8220;DHT22;4151;51.110;7.020;2022-08-19T06:53:41;19.10;99.90
8220;DHT22;4151;51.110;7.020;2022-08-19T06:56:16;19.30;99.90
8220;DHT22;4151;51.110;7.020;2022-08-19T06:58:42;19.40;99.90
8220;DHT22;4151;51.110;7.020;2022-08-19T07:01:08;19.50;99.90
8220;DHT22;4151;51.110;7.020;2022-08-19T07:03:36;19.50;99.90
8220;DHT22;4151;51.110;7.020;2022-08-19T07:06:07;19.60;99.90
8220;DHT22;4151;51.110;7.020;2022-08-19T07:08:35;19.80;99.90
8220;DHT22;4151;51.110;7.020;2022-08-19T07:11:05;19.90;99.90
8220;DHT22;4151;51.110;7.020;2022-08-19T07:13:32;19.90;99.90
8220;DHT22;4151;51.110;7.020;2022-08-19T07:16:06;19.80;99.90
8220;DHT22;4151;51.110;7.020;2022-08-19T07:18:33;19.80;99.90
8220;DHT22;4151;51.110;7.020;2022-08-19T07:21:05;19.70;99.90
8220;DHT22;4151;51.110;7.020;2022-08-19T07:23:31;19.70;99.90
8220;DHT22;4151;51.110;7.020;2022-08-19T07:25:57;19.70;99.90
8220;DHT22;4151;51.110;7.020;2022-08-19T07:28:23;19.70;99.90
8220;DHT22;4151;51.110;7.020;2022-08-19T07:30:49;19.80;99.90
8220;DHT22;4151;51.110;7.020;2022-08-19T07:33:15;19.70;99.90
8220;DHT22;4151;51.110;7.020;2022-08-19T07:35:42;19.70;99.90
8220;DHT22;4151;51.110;7.020;2022-08-19T07:38:09;19.80;99.90
8220;DHT22;4151;51.110;7.020;2022-08-19T07:40:35;19.70;99.90
8220;DHT22;4151;51.110;7.020;2022-08-19T07:43:01;19.90;99.90
8220;DHT22;4151;51.110;7.020;2022-08-19T07:45:26;20.10;99.90
8220;DHT22;4151;51.110;7.020;2022-08-19T07:47:54;20.10;99.90
8220;DHT22;4151;51.110;7.020;2022-08-19T07:50:21;20.20;99.90
8220;DHT22;4151;51.110;7.020;2022-08-19T07:52:48;20.10;99.90
8220;DHT22;4151;51.110;7.020;2022-08-19T07:55:21;20.20;99.90
8220;DHT22;4151;51.110;7.020;2022-08-19T07:57:47;20.20;99.90
8220;DHT22;4151;51.110;7.020;2022-08-19T08:00:13;20.30;99.90
8220;DHT22;4151;51.110;7.020;2022-08-19T08:02:39;20.10;99.90
8220;DHT22;4151;51.110;7.020;2022-08-19T08:05:08;20.10;99.90
8220;DHT22;4151;51.110;7.020;2022-08-19T08:07:52;20.10;99.90
8220;DHT22;4151;51.110;7.020;2022-08-19T08:10:36;20.30;99.90
8220;DHT22;4151;51.110;7.020;2022-08-19T08:13:03;20.30;99.90
8220;DHT22;4151;51.110;7.020;2022-08-19T08:15:31;20.20;99.90
8220;DHT22;4151;51.110;7.020;2022-08-19T08:17:56;20.20;99.90
8220;DHT22;4151;51.110;7.020;2022-08-19T08:20:23;20.30;99.90
8220;DHT22;4151;51.110;7.020;2022-08-19T08:22:49;20.40;99.90
8220;DHT22;4151;51.110;7.020;2022-08-19T08:25:34;20.60;99.90
8220;DHT22;4151;51.110;7.020;2022-08-19T08:28:01;20.90;99.90
8220;DHT22;4151;51.110;7.020;2022-08-19T08:30:29;21.30;99.90
8220;DHT22;4151;51.110;7.020;2022-08-19T08:32:55;21.50;99.90
8220;DHT22;4151;51.110;7.020;2022-08-19T08:35:22;21.70;99.90
8220;DHT22;4151;51.110;7.020;2022-08-19T08:37:51;21.80;99.90
8220;DHT22;4151;51.110;7.020;2022-08-19T08:43:30;22.40;99.90
8220;DHT22;4151;51.110;7.020;2022-08-19T08:46:30;22.50;99.90
8220;DHT22;4151;51.110;7.020;2022-08-19T08:49:23;22.70;99.90
8220;DHT22;4151;51.110;7.020;2022-08-19T08:52:18;23.00;99.90
8220;DHT22;4151;51.110;7.020;2022-08-19T08:54:48;23.50;99.90
8220;DHT22;4151;51.110;7.020;2022-08-19T09:00:08;24.30;99.90
8220;DHT22;4151;51.110;7.020;2022-08-19T09:02:36;24.50;99.90
8220;DHT22;4151;51.110;7.020;2022-08-19T09:05:01;24.70;99.90
8220;DHT22;4151;51.110;7.020;2022-08-19T09:07:42;25.30;99.90
8220;DHT22;4151;51.110;7.020;2022-08-19T09:10:22;25.50;99.90
8220;DHT22;4151;51.110;7.020;2022-08-19T09:13:31;25.30;99.90
8220;DHT22;4151;51.110;7.020;2022-08-19T09:16:15;25.20;99.90
8220;DHT22;4151;51.110;7.020;2022-08-19T09:18:46;25.10;99.90
8220;DHT22;4151;51.110;7.020;2022-08-19T09:21:14;25.20;99.90
8220;DHT22;4151;51.110;7.020;2022-08-19T09:23:40;25.70;99.90
8220;DHT22;4151;51.110;7.020;2022-08-19T09:26:11;26.00;99.90
8220;DHT22;4151;51.110;7.020;2022-08-19T09:28:39;26.30;99.90
8220;DHT22;4151;51.110;7.020;2022-08-19T09:31:12;25.90;99.90
8220;DHT22;4151;51.110;7.020;2022-08-19T09:33:38;25.30;99.90
8220;DHT22;4151;51.110;7.020;2022-08-19T09:36:11;25.30;99.90
8220;DHT22;4151;51.110;7.020;2022-08-19T09:38:38;25.30;99.90
8220;DHT22;4151;51.110;7.020;2022-08-19T09:41:18;24.90;99.90
8220;DHT22;4151;51.110;7.020;2022-08-19T09:43:46;25.10;99.90
8220;DHT22;4151;51.110;7.020;2022-08-19T09:46:11;25.00;99.90
8220;DHT22;4151;51.110;7.020;2022-08-19T09:48:39;25.10;99.90
8220;DHT22;4151;51.110;7.020;2022-08-19T09:51:09;25.10;99.90
8220;DHT22;4151;51.110;7.020;2022-08-19T09:53:35;25.30;99.90
8220;DHT22;4151;51.110;7.020;2022-08-19T09:56:02;25.40;99.90
8220;DHT22;4151;51.110;7.020;2022-08-19T09:58:28;25.70;99.90
8220;DHT22;4151;51.110;7.020;2022-08-19T10:00:56;26.00;99.90
8220;DHT22;4151;51.110;7.020;2022-08-19T10:03:22;26.20;99.90
8220;DHT22;4151;51.110;7.020;2022-08-19T10:05:48;25.50;99.90
8220;DHT22;4151;51.110;7.020;2022-08-19T10:08:16;25.50;99.90
8220;DHT22;4151;51.110;7.020;2022-08-19T10:10:42;26.00;99.90
8220;DHT22;4151;51.110;7.020;2022-08-19T10:13:09;26.40;99.90
8220;DHT22;4151;51.110;7.020;2022-08-19T10:15:35;26.70;99.90
8220;DHT22;4151;51.110;7.020;2022-08-19T10:18:01;27.10;99.90
8220;DHT22;4151;51.110;7.020;2022-08-19T10:20:26;26.60;99.90
8220;DHT22;4151;51.110;7.020;2022-08-19T10:22:52;26.90;99.90
8220;DHT22;4151;51.110;7.020;2022-08-19T10:25:18;27.30;99.90
8220;DHT22;4151;51.110;7.020;2022-08-19T10:27:43;27.20;99.90
8220;DHT22;4151;51.110;7.020;2022-08-19T10:30:09;27.20;99.90
8220;DHT22;4151;51.110;7.020;2022-08-19T10:32:35;27.60;99.90
8220;DHT22;4151;51.110;7.020;2022-08-19T10:35:03;28.20;99.90
8220;DHT22;4151;51.110;7.020;2022-08-19T10:37:31;28.30;99.90
8220;DHT22;4151;51.110;7.020;2022-08-19T10:39:57;28.40;99.90
8220;DHT22;4151;51.110;7.020;2022-08-19T10:42:23;27.80;99.90
8220;DHT22;4151;51.110;7.020;2022-08-19T10:44:49;27.70;99.90
8220;DHT22;4151;51.110;7.020;2022-08-19T10:47:15;27.60;99.90
8220;DHT22;4151;51.110;7.020;2022-08-19T10:49:41;28.10;99.90
8220;DHT22;4151;51.110;7.020;2022-08-19T10:52:26;28.30;99.90
8220;DHT22;4151;51.110;7.020;2022-08-19T10:55:02;29.20;99.90
8220;DHT22;4151;51.110;7.020;2022-08-19T10:57:46;28.60;99.90
8220;DHT22;4151;51.110;7.020;2022-08-19T11:00:12;28.80;99.90
8220;DHT22;4151;51.110;7.020;2022-08-19T11:02:38;29.10;99.90
8220;DHT22;4151;51.110;7.020;2022-08-19T11:05:04;28.80;99.90
8220;DHT22;4151;51.110;7.020;2022-08-19T11:07:33;28.60;99.90
8220;DHT22;4151;51.110;7.020;2022-08-19T11:09:58;28.20;99.90
8220;DHT22;4151;51.110;7.020;2022-08-19T11:22:18;28.50;99.90
8220;DHT22;4151;51.110;7.020;2022-08-19T11:24:44;27.30;99.90
8220;DHT22;4151;51.110;7.020;2022-08-19T11:27:10;26.70;99.90
8220;DHT22;4151;51.110;7.020;2022-08-19T11:29:38;26.70;99.90
8220;DHT22;4151;51.110;7.020;2022-08-19T11:32:06;27.50;99.90
8220;DHT22;4151;51.110;7.020;2022-08-19T11:34:34;28.30;99.90
8220;DHT22;4151;51.110;7.020;2022-08-19T11:37:01;27.90;99.90
8220;DHT22;4151;51.110;7.020;2022-08-19T11:39:29;28.20;99.90
8220;DHT22;4151;51.110;7.020;2022-08-19T11:41:57;29.30;99.90
8220;DHT22;4151;51.110;7.020;2022-08-19T11:44:23;30.40;99.90
8220;DHT22;4151;51.110;7.020;2022-08-19T11:46:49;30.50;99.90
8220;DHT22;4151;51.110;7.020;2022-08-19T11:49:16;30.60;99.90
8220;DHT22;4151;51.110;7.020;2022-08-19T11:51:44;30.00;99.90
8220;DHT22;4151;51.110;7.020;2022-08-19T11:54:11;29.50;99.90
8220;DHT22;4151;51.110;7.020;2022-08-19T11:56:37;29.30;99.90
8220;DHT22;4151;51.110;7.020;2022-08-19T11:59:03;28.70;99.90
8220;DHT22;4151;51.110;7.020;2022-08-19T12:01:29;28.80;99.90
8220;DHT22;4151;51.110;7.020;2022-08-19T12:03:56;29.30;99.90
8220;DHT22;4151;51.110;7.020;2022-08-19T12:06:28;29.20;99.90
8220;DHT22;4151;51.110;7.020;2022-08-19T12:09:02;29.30;99.90
8220;DHT22;4151;51.110;7.020;2022-08-19T12:11:29;28.60;99.90
8220;DHT22;4151;51.110;7.020;2022-08-19T12:13:55;29.30;99.90
8220;DHT22;4151;51.110;7.020;2022-08-19T12:16:23;30.10;99.90
8220;DHT22;4151;51.110;7.020;2022-08-19T12:18:50;30.10;99.90
8220;DHT22;4151;51.110;7.020;2022-08-19T12:21:19;29.10;99.90
8220;DHT22;4151;51.110;7.020;2022-08-19T12:23:47;29.00;99.90
8220;DHT22;4151;51.110;7.020;2022-08-19T12:26:14;29.70;99.90
8220;DHT22;4151;51.110;7.020;2022-08-19T12:28:39;29.20;99.90
8220;DHT22;4151;51.110;7.020;2022-08-19T12:31:07;29.00;99.90
8220;DHT22;4151;51.110;7.020;2022-08-19T12:33:34;29.10;99.90
8220;DHT22;4151;51.110;7.020;2022-08-19T12:36:05;30.00;99.90
8220;DHT22;4151;51.110;7.020;2022-08-19T12:38:32;30.10;99.90
8220;DHT22;4151;51.110;7.020;2022-08-19T12:40:58;29.30;99.90
8220;DHT22;4151;51.110;7.020;2022-08-19T12:43:24;28.40;99.90
8220;DHT22;4151;51.110;7.020;2022-08-19T12:45:50;28.50;99.90
8220;DHT22;4151;51.110;7.020;2022-08-19T12:48:16;28.50;99.90
8220;DHT22;4151;51.110;7.020;2022-08-19T12:50:43;27.70;99.90
8220;DHT22;4151;51.110;7.020;2022-08-19T12:53:12;28.20;99.90
8220;DHT22;4151;51.110;7.020;2022-08-19T12:55:38;28.70;99.90
8220;DHT22;4151;51.110;7.020;2022-08-19T12:58:04;28.90;99.90
8220;DHT22;4151;51.110;7.020;2022-08-19T13:00:29;29.00;99.90
8220;DHT22;4151;51.110;7.020;2022-08-19T13:02:58;29.60;99.90
8220;DHT22;4151;51.110;7.020;2022-08-19T13:05:27;30.00;99.90
8220;DHT22;4151;51.110;7.020;2022-08-19T13:07:54;30.40;99.90
8220;DHT22;4151;51.110;7.020;2022-08-19T13:10:27;30.60;99.90
8220;DHT22;4151;51.110;7.020;2022-08-19T13:12:54;30.00;99.90
8220;DHT22;4151;51.110;7.020;2022-08-19T13:15:22;30.60;99.90
8220;DHT22;4151;51.110;7.020;2022-08-19T13:17:50;31.70;99.90
8220;DHT22;4151;51.110;7.020;2022-08-19T13:20:18;32.40;99.90
8220;DHT22;4151;51.110;7.020;2022-08-19T13:22:45;32.10;99.90
8220;DHT22;4151;51.110;7.020;2022-08-19T13:25:13;31.40;99.90
8220;DHT22;4151;51.110;7.020;2022-08-19T13:27:39;32.30;99.90
8220;DHT22;4151;51.110;7.020;2022-08-19T13:30:07;31.60;99.90
8220;DHT22;4151;51.110;7.020;2022-08-19T13:32:52;31.60;99.90
8220;DHT22;4151;51.110;7.020;2022-08-19T13:35:41;32.30;99.50
8220;DHT22;4151;51.110;7.020;2022-08-19T13:38:08;30.40;99.90
8220;DHT22;4151;51.110;7.020;2022-08-19T13:40:34;30.20;99.90
8220;DHT22;4151;51.110;7.020;2022-08-19T13:43:02;30.70;99.90
8220;DHT22;4151;51.110;7.020;2022-08-19T13:45:29;31.30;99.40
8220;DHT22;4151;51.110;7.020;2022-08-19T13:47:56;31.50;98.10
8220;DHT22;4151;51.110;7.020;2022-08-19T13:50:25;31.40;98.90
8220;DHT22;4151;51.110;7.020;2022-08-19T13:52:52;30.90;99.00
8220;DHT22;4151;51.110;7.020;2022-08-19T13:55:18;29.90;99.90
8220;DHT22;4151;51.110;7.020;2022-08-19T13:57:44;30.20;99.90
8220;DHT22;4151;51.110;7.020;2022-08-19T14:00:15;29.80;99.90
8220;DHT22;4151;51.110;7.020;2022-08-19T14:02:45;30.70;99.90
8220;DHT22;4151;51.110;7.020;2022-08-19T14:05:13;32.00;99.90
8220;DHT22;4151;51.110;7.020;2022-08-19T14:07:39;33.90;97.40
8220;DHT22;4151;51.110;7.020;2022-08-19T14:10:08;34.50;94.20
8220;DHT22;4151;51.110;7.020;2022-08-19T14:12:34;34.80;93.00
8220;DHT22;4151;51.110;7.020;2022-08-19T14:15:01;35.50;91.20
8220;DHT22;4151;51.110;7.020;2022-08-19T14:17:28;35.90;90.10
8220;DHT22;4151;51.110;7.020;2022-08-19T14:20:02;36.30;88.90
8220;DHT22;4151;51.110;7.020;2022-08-19T14:22:40;37.00;85.20
8220;DHT22;4151;51.110;7.020;2022-08-19T14:25:07;37.50;81.10
8220;DHT22;4151;51.110;7.020;2022-08-19T14:27:38;36.40;82.00
8220;DHT22;4151;51.110;7.020;2022-08-19T14:30:05;35.70;81.90
8220;DHT22;4151;51.110;7.020;2022-08-19T14:32:32;35.30;82.50
8220;DHT22;4151;51.110;7.020;2022-08-19T14:34:58;36.10;81.90
8220;DHT22;4151;51.110;7.020;2022-08-19T14:37:24;35.90;80.00
8220;DHT22;4151;51.110;7.020;2022-08-19T14:39:49;36.50;81.00
8220;DHT22;4151;51.110;7.020;2022-08-19T14:42:15;37.80;77.70
8220;DHT22;4151;51.110;7.020;2022-08-19T14:44:41;36.90;76.60
8220;DHT22;4151;51.110;7.020;2022-08-19T14:47:08;35.60;78.10
8220;DHT22;4151;51.110;7.020;2022-08-19T14:49:34;34.50;79.60
8220;DHT22;4151;51.110;7.020;2022-08-19T14:52:00;33.00;81.40
8220;DHT22;4151;51.110;7.020;2022-08-19T14:54:26;30.80;86.80
8220;DHT22;4151;51.110;7.020;2022-08-19T14:56:52;30.20;89.80
8220;DHT22;4151;51.110;7.020;2022-08-19T14:59:17;31.70;88.60
8220;DHT22;4151;51.110;7.020;2022-08-19T15:01:44;34.60;85.10
8220;DHT22;4151;51.110;7.020;2022-08-19T15:04:09;36.30;77.60
8220;DHT22;4151;51.110;7.020;2022-08-19T15:06:35;36.20;77.70
8220;DHT22;4151;51.110;7.020;2022-08-19T15:09:01;35.00;78.60
8220;DHT22;4151;51.110;7.020;2022-08-19T15:11:28;34.80;79.40
8220;DHT22;4151;51.110;7.020;2022-08-19T15:13:55;35.00;79.00
8220;DHT22;4151;51.110;7.020;2022-08-19T15:16:22;35.60;78.20
8220;DHT22;4151;51.110;7.020;2022-08-19T15:18:50;36.00;78.80
8220;DHT22;4151;51.110;7.020;2022-08-19T15:21:16;34.90;77.40
8220;DHT22;4151;51.110;7.020;2022-08-19T15:23:43;36.00;78.00
8220;DHT22;4151;51.110;7.020;2022-08-19T15:26:09;38.00;74.60
8220;DHT22;4151;51.110;7.020;2022-08-19T15:28:36;39.00;72.90
8220;DHT22;4151;51.110;7.020;2022-08-19T15:31:03;39.80;69.80
8220;DHT22;4151;51.110;7.020;2022-08-19T15:33:34;39.80;68.80
8220;DHT22;4151;51.110;7.020;2022-08-19T15:36:03;39.80;67.30
8220;DHT22;4151;51.110;7.020;2022-08-19T15:38:31;39.40;66.40
8220;DHT22;4151;51.110;7.020;2022-08-19T15:41:02;40.00;67.30
8220;DHT22;4151;51.110;7.020;2022-08-19T15:43:53;41.50;63.40
8220;DHT22;4151;51.110;7.020;2022-08-19T15:46:20;41.10;63.50
8220;DHT22;4151;51.110;7.020;2022-08-19T15:48:48;40.50;62.20
8220;DHT22;4151;51.110;7.020;2022-08-19T15:51:14;38.50;63.20
8220;DHT22;4151;51.110;7.020;2022-08-19T15:53:40;36.60;66.00
8220;DHT22;4151;51.110;7.020;2022-08-19T15:56:07;34.20;68.80
8220;DHT22;4151;51.110;7.020;2022-08-19T15:58:33;32.80;71.40
8220;DHT22;4151;51.110;7.020;2022-08-19T16:01:17;31.30;75.40
8220;DHT22;4151;51.110;7.020;2022-08-19T16:04:03;29.20;80.60
8220;DHT22;4151;51.110;7.020;2022-08-19T16:06:50;28.50;83.60
8220;DHT22;4151;51.110;7.020;2022-08-19T16:09:20;27.70;86.90
8220;DHT22;4151;51.110;7.020;2022-08-19T16:11:46;27.70;90.20
8220;DHT22;4151;51.110;7.020;2022-08-19T16:14:18;27.80;90.40
8220;DHT22;4151;51.110;7.020;2022-08-19T16:16:45;27.70;90.60
8220;DHT22;4151;51.110;7.020;2022-08-19T16:19:13;27.50;91.50
8220;DHT22;4151;51.110;7.020;2022-08-19T16:21:41;27.70;92.00
8220;DHT22;4151;51.110;7.020;2022-08-19T16:24:10;27.70;92.80
8220;DHT22;4151;51.110;7.020;2022-08-19T16:26:38;27.60;93.80
8220;DHT22;4151;51.110;7.020;2022-08-19T16:29:04;27.50;94.60